Time;durP1;ratioP1;P1;durP2;ratioP2;P2;SDS_P1;SDS_P2;PMS_P1;PMS_P2;Temp;Humidity;BMP_temperature;BMP_pressure;BME280_temperature;BME280_humidity;BME280_pressure;Samples;Min_cycle;Max_cycle;Signal;HPM_P1;HPM_P2
2022/04/16 00:00:12;;;;;;;17.00;14.98;;;10.50;99.90;;;;;;5117724;28;20023;-67
2022/04/16 00:02:38;;;;;;;17.50;15.07;;;10.40;99.90;;;;;;5118344;28;20058;-67
2022/04/16 00:05:05;;;;;;;18.48;15.25;;;10.30;99.90;;;;;;5117669;28;20071;-68
2022/04/16 00:07:31;;;;;;;17.23;15.25;;;10.40;99.90;;;;;;5117518;28;20028;-68
2022/04/16 00:09:57;;;;;;;17.25;14.80;;;10.40;99.90;;;;;;5118163;28;20039;-68
2022/04/16 00:12:23;;;;;;;17.40;14.63;;;10.20;99.90;;;;;;5118411;28;20088;-68
2022/04/16 00:14:49;;;;;;;18.15;16.20;;;10.10;99.90;;;;;;5100411;28;20126;-67
2022/04/16 00:17:16;;;;;;;19.35;16.40;;;10.00;99.90;;;;;;5118062;28;20073;-67
2022/04/16 00:19:43;;;;;;;17.70;14.57;;;10.00;99.90;;;;;;5118034;28;20038;-67
2022/04/16 00:22:12;;;;;;;18.25;14.48;;;9.90;99.90;;;;;;5117985;28;20324;-68
2022/04/16 00:24:40;;;;;;;20.58;15.48;;;9.90;99.90;;;;;;5117983;28;20042;-66
2022/04/16 00:27:10;;;;;;;18.83;15.52;;;9.80;99.90;;;;;;5117418;28;20034;-66
2022/04/16 00:29:37;;;;;;;19.77;15.40;;;9.80;99.90;;;;;;5117919;28;20112;-66
2022/04/16 00:32:05;;;;;;;18.42;16.15;;;9.90;99.90;;;;;;5117861;28;20345;-68
2022/04/16 00:34:34;;;;;;;20.33;16.33;;;10.00;99.90;;;;;;5117862;28;20036;-67
2022/04/16 00:37:01;;;;;;;17.95;15.75;;;10.10;99.90;;;;;;5117128;28;20132;-67
2022/04/16 00:39:26;;;;;;;17.35;15.07;;;10.20;99.90;;;;;;5117073;28;20119;-67
2022/04/16 00:41:53;;;;;;;20.73;17.40;;;10.10;99.90;;;;;;5117682;28;20066;-67
2022/04/16 00:44:20;;;;;;;16.83;15.05;;;10.10;99.90;;;;;;5117550;28;20365;-67
2022/04/16 00:46:49;;;;;;;19.95;16.08;;;10.00;99.90;;;;;;5116936;28;20362;-67
2022/04/16 00:49:15;;;;;;;18.35;15.77;;;10.00;99.90;;;;;;5116898;28;20032;-67
2022/04/16 00:51:46;;;;;;;17.55;15.65;;;10.00;99.90;;;;;;5116810;28;20024;-67
2022/04/16 00:54:12;;;;;;;17.38;15.48;;;10.00;99.90;;;;;;5117578;28;20024;-68
2022/04/16 00:56:39;;;;;;;19.05;15.90;;;10.10;99.90;;;;;;5117136;28;20085;-67
2022/04/16 00:59:05;;;;;;;17.85;14.90;;;10.10;99.90;;;;;;5117544;28;20046;-68
2022/04/16 01:01:32;;;;;;;20.67;15.20;;;10.00;99.90;;;;;;5116788;28;20379;-68
2022/04/16 01:03:59;;;;;;;19.08;16.15;;;9.90;99.90;;;;;;5117490;28;20032;-68
2022/04/16 01:06:38;;;;;;;16.95;15.13;;;9.90;99.90;;;;;;5116721;28;20068;-67
2022/04/16 01:09:05;;;;;;;20.95;16.58;;;9.80;99.90;;;;;;5117378;28;20160;-68
2022/04/16 01:11:34;;;;;;;18.50;16.15;;;9.80;99.90;;;;;;5117405;28;20421;-67
2022/04/16 01:14:00;;;;;;;18.73;16.73;;;9.70;99.90;;;;;;5117417;28;20031;-67
2022/04/16 01:16:29;;;;;;;22.92;16.33;;;9.70;99.90;;;;;;5116654;28;20103;-67
2022/04/16 01:18:55;;;;;;;20.52;16.92;;;9.60;99.90;;;;;;5116598;28;20047;-67
2022/04/16 01:21:21;;;;;;;17.42;15.57;;;9.60;99.90;;;;;;5117229;28;20449;-66
2022/04/16 01:23:47;;;;;;;20.27;16.67;;;9.70;99.90;;;;;;5116469;28;20395;-67
2022/04/16 01:26:14;;;;;;;18.77;16.60;;;9.80;99.90;;;;;;5116699;28;20059;-68
2022/04/16 01:28:43;;;;;;;18.65;16.10;;;9.80;99.90;;;;;;5116332;28;20081;-68
2022/04/16 01:31:09;;;;;;;18.65;16.58;;;9.70;99.90;;;;;;5116784;28;20039;-66
2022/04/16 01:33:35;;;;;;;21.20;16.65;;;9.90;99.90;;;;;;5117193;28;20050;-66
2022/04/16 01:36:01;;;;;;;18.35;15.75;;;10.00;99.90;;;;;;5116944;28;20043;-66
2022/04/16 01:38:27;;;;;;;19.52;16.77;;;10.00;99.90;;;;;;5117161;28;20395;-67
2022/04/16 01:40:57;;;;;;;20.38;15.75;;;10.10;99.90;;;;;;5116438;28;20039;-68
2022/04/16 01:43:23;;;;;;;19.83;16.08;;;9.90;99.90;;;;;;5099287;28;20132;-68
2022/04/16 01:45:49;;;;;;;18.10;15.63;;;9.90;99.90;;;;;;5117289;28;20042;-67
2022/04/16 01:48:21;;;;;;;20.35;15.70;;;9.80;99.90;;;;;;5117841;28;20028;-66
2022/04/16 01:50:47;;;;;;;18.13;16.00;;;9.80;99.90;;;;;;5120930;28;20092;-67
2022/04/16 01:53:12;;;;;;;20.40;16.60;;;9.90;99.90;;;;;;5120443;28;20031;-67
2022/04/16 01:55:38;;;;;;;22.15;16.45;;;9.70;99.90;;;;;;5120892;28;20314;-68
2022/04/16 01:58:05;;;;;;;17.92;15.60;;;9.70;99.90;;;;;;5120784;28;20032;-68
2022/04/16 02:00:31;;;;;;;20.10;16.02;;;9.70;99.90;;;;;;5120761;28;20035;-67
2022/04/16 02:02:57;;;;;;;19.30;16.50;;;9.60;99.90;;;;;;5120056;28;20303;-67
2022/04/16 02:05:23;;;;;;;20.25;16.15;;;9.50;99.90;;;;;;5119972;28;20038;-66
2022/04/16 02:07:50;;;;;;;21.80;16.55;;;9.60;99.90;;;;;;5120531;28;20036;-67
2022/04/16 02:10:17;;;;;;;24.30;17.05;;;9.70;99.90;;;;;;5102901;28;20028;-67
2022/04/16 02:12:44;;;;;;;20.30;16.92;;;9.60;99.90;;;;;;5120395;28;20099;-67
2022/04/16 02:15:10;;;;;;;20.50;16.33;;;9.50;99.90;;;;;;5121046;28;20295;-67
2022/04/16 02:17:37;;;;;;;20.77;16.48;;;9.60;99.90;;;;;;5119684;28;20028;-67
2022/04/16 02:20:08;;;;;;;21.52;17.60;;;9.60;99.90;;;;;;5119637;28;20122;-67
2022/04/16 02:22:45;;;;;;;22.23;17.55;;;9.60;99.90;;;;;;5120467;28;20035;-67
2022/04/16 02:25:13;;;;;;;20.40;16.70;;;9.60;99.90;;;;;;5119513;28;20028;-68
2022/04/16 02:27:40;;;;;;;19.90;16.77;;;9.60;99.90;;;;;;5120146;28;20053;-68
2022/04/16 02:30:08;;;;;;;20.88;16.90;;;9.60;99.90;;;;;;5119471;28;20031;-68
2022/04/16 02:32:43;;;;;;;21.88;17.70;;;9.50;99.90;;;;;;5120101;28;20023;-67
2022/04/16 02:35:10;;;;;;;21.45;17.13;;;9.50;99.90;;;;;;5120110;28;20081;-67
2022/04/16 02:37:36;;;;;;;20.35;16.50;;;9.50;99.90;;;;;;5120036;28;20055;-67
2022/04/16 02:40:03;;;;;;;21.13;16.90;;;9.50;99.90;;;;;;5120013;28;20042;-67
2022/04/16 02:42:29;;;;;;;19.98;16.58;;;9.40;99.90;;;;;;5119940;28;20039;-66
2022/04/16 02:47:39;;;;;;;23.35;16.85;;;9.30;99.90;;;;;;5119066;28;20056;-68
2022/04/16 02:50:06;;;;;;;22.27;16.23;;;9.30;99.90;;;;;;5102055;28;20497;-68
2022/04/16 02:52:36;;;;;;;22.95;15.95;;;9.20;99.90;;;;;;5118979;28;20046;-68
2022/04/16 02:55:05;;;;;;;22.25;17.20;;;9.20;99.90;;;;;;5120255;28;20050;-68
2022/04/16 02:57:32;;;;;;;20.75;16.92;;;9.10;99.90;;;;;;5119575;28;20119;-67
2022/04/16 02:59:58;;;;;;;21.23;16.25;;;9.00;99.90;;;;;;5119006;28;20032;-67
2022/04/16 03:02:24;;;;;;;21.63;17.33;;;9.00;99.90;;;;;;5119531;28;20082;-67
2022/04/16 03:04:50;;;;;;;21.27;15.77;;;8.90;99.90;;;;;;5118883;28;20036;-67
2022/04/16 03:07:17;;;;;;;20.20;15.70;;;8.70;99.90;;;;;;5119424;28;20452;-67
2022/04/16 03:09:43;;;;;;;23.58;16.95;;;8.80;99.90;;;;;;5084835;28;20096;-67
2022/04/16 03:12:08;;;;;;;22.48;17.42;;;8.80;99.90;;;;;;5101689;28;20027;-66
2022/04/16 03:17:35;;;;;;;20.98;17.13;;;8.80;99.90;;;;;;5119249;28;20337;-67
2022/04/16 03:20:06;;;;;;;23.88;16.45;;;8.70;99.90;;;;;;5119280;28;20044;-67
2022/04/16 03:22:36;;;;;;;21.75;17.13;;;8.60;99.90;;;;;;5119181;28;20298;-67
2022/04/16 03:25:09;;;;;;;23.17;17.55;;;8.60;99.90;;;;;;5119216;28;20292;-67
2022/04/16 03:27:37;;;;;;;23.50;17.45;;;8.70;99.90;;;;;;5119243;28;20310;-67
2022/04/16 03:30:07;;;;;;;24.88;17.13;;;8.70;99.90;;;;;;5118317;28;20035;-66
2022/04/16 03:32:37;;;;;;;21.83;17.20;;;8.60;99.90;;;;;;5118165;28;20031;-67
2022/04/16 03:35:05;;;;;;;21.98;17.50;;;8.60;99.90;;;;;;5118590;28;20330;-66
2022/04/16 03:37:37;;;;;;;20.75;17.23;;;8.60;99.90;;;;;;5118863;28;20423;-67
2022/04/16 03:40:04;;;;;;;25.85;18.55;;;8.50;99.90;;;;;;5118196;28;20039;-68
2022/04/16 03:42:31;;;;;;;24.83;17.30;;;8.50;99.90;;;;;;5117948;28;20459;-68
2022/04/16 03:45:00;;;;;;;24.80;17.92;;;8.60;99.90;;;;;;5117996;28;20055;-67
2022/04/16 03:47:26;;;;;;;23.13;16.60;;;8.40;99.90;;;;;;5118667;28;20050;-67
2022/04/16 03:49:52;;;;;;;24.05;17.67;;;8.40;99.90;;;;;;5118003;28;20043;-67
2022/04/16 03:52:18;;;;;;;25.55;17.45;;;8.40;99.90;;;;;;5118001;28;20391;-68
2022/04/16 04:00:13;;;;;;;23.33;18.25;;;8.30;99.90;;;;;;5104142;28;20112;-66
2022/04/16 04:02:39;;;;;;;23.90;17.55;;;8.40;99.90;;;;;;5118330;28;20031;-67
2022/04/16 04:05:06;;;;;;;22.48;18.27;;;8.50;99.90;;;;;;5118332;28;20175;-67
2022/04/16 04:07:33;;;;;;;24.60;20.02;;;8.60;99.90;;;;;;5118178;28;20027;-67
2022/04/16 04:09:59;;;;;;;28.60;19.80;;;8.70;99.90;;;;;;5117436;28;20371;-67
2022/04/16 04:12:25;;;;;;;24.00;18.77;;;8.70;99.90;;;;;;5117205;28;20303;-67
2022/04/16 04:14:51;;;;;;;25.23;18.67;;;8.60;99.90;;;;;;5117580;28;20024;-67
2022/04/16 04:17:18;;;;;;;25.10;19.35;;;8.60;99.90;;;;;;5118202;28;20032;-67
2022/04/16 04:19:46;;;;;;;24.65;19.77;;;8.70;99.90;;;;;;5117309;28;20393;-67
2022/04/16 04:22:14;;;;;;;27.35;19.10;;;8.70;99.90;;;;;;5117984;28;20321;-67
2022/04/16 04:24:42;;;;;;;25.38;19.27;;;8.60;99.90;;;;;;5118047;28;20155;-67
2022/04/16 04:27:08;;;;;;;26.35;19.92;;;8.60;99.90;;;;;;5100232;28;20024;-67
2022/04/16 04:29:35;;;;;;;28.42;19.65;;;8.50;99.90;;;;;;5100210;28;20042;-67
2022/04/16 04:32:01;;;;;;;27.85;20.08;;;8.70;99.90;;;;;;5117761;28;20096;-67
2022/04/16 04:34:27;;;;;;;24.52;19.52;;;8.70;99.90;;;;;;5117778;28;20024;-66
2022/04/16 04:36:52;;;;;;;26.70;20.77;;;8.70;99.90;;;;;;5100171;28;20028;-67
2022/04/16 04:39:18;;;;;;;26.80;20.70;;;8.70;99.90;;;;;;5117734;28;20036;-68
2022/04/16 04:41:46;;;;;;;25.60;20.02;;;8.60;99.90;;;;;;5117684;28;20032;-68
2022/04/16 04:44:15;;;;;;;27.65;20.30;;;8.50;99.90;;;;;;5116776;28;20112;-68
2022/04/16 04:46:42;;;;;;;30.15;21.05;;;8.50;99.90;;;;;;5116830;28;20307;-68
2022/04/16 04:49:08;;;;;;;29.15;19.35;;;8.30;99.90;;;;;;5116765;28;20124;-68
2022/04/16 04:51:38;;;;;;;25.38;20.02;;;8.20;99.90;;;;;;5117913;28;20023;-68
2022/04/16 04:54:05;;;;;;;26.88;20.65;;;8.10;99.90;;;;;;5083021;28;20023;-68
2022/04/16 04:56:31;;;;;;;29.20;21.33;;;8.20;99.90;;;;;;5117453;28;20023;-68
2022/04/16 04:58:57;;;;;;;29.13;21.60;;;8.40;99.90;;;;;;5117400;28;20027;-68
2022/04/16 05:01:23;;;;;;;29.42;21.17;;;8.30;99.90;;;;;;5099476;28;20046;-68
2022/04/16 05:03:49;;;;;;;29.42;20.50;;;8.40;99.90;;;;;;5116674;28;20106;-68
2022/04/16 05:06:15;;;;;;;29.00;21.73;;;8.30;99.90;;;;;;5116707;28;20044;-68
2022/04/16 05:08:42;;;;;;;29.55;21.63;;;8.40;99.90;;;;;;5117096;28;20041;-68
2022/04/16 05:11:08;;;;;;;31.13;21.88;;;8.50;99.90;;;;;;5100163;28;20028;-68
2022/04/16 05:13:33;;;;;;;29.58;22.23;;;8.50;99.90;;;;;;5117307;28;20024;-68
2022/04/16 05:15:59;;;;;;;30.08;22.10;;;8.60;99.90;;;;;;5117330;28;20039;-67
2022/04/16 05:18:26;;;;;;;31.20;21.50;;;8.60;99.90;;;;;;5116622;28;20039;-68
2022/04/16 05:20:52;;;;;;;28.58;21.83;;;8.70;99.90;;;;;;5117786;28;20024;-68
2022/04/16 05:23:17;;;;;;;30.90;22.15;;;8.60;99.90;;;;;;5117886;28;20243;-67
2022/04/16 05:25:43;;;;;;;30.88;22.20;;;8.60;99.90;;;;;;5120683;28;20118;-68
2022/04/16 05:28:09;;;;;;;31.15;23.25;;;8.70;99.90;;;;;;5121262;28;20031;-68
2022/04/16 05:30:54;;;;;;;28.02;21.50;;;8.70;99.90;;;;;;5121360;28;20027;-68
2022/04/16 05:36:07;;;;;;;29.17;22.33;;;8.50;99.90;;;;;;5121781;28;20035;-68
2022/04/16 05:38:33;;;;;;;30.35;23.15;;;8.50;99.90;;;;;;5121540;28;20088;-69
2022/04/16 05:40:59;;;;;;;33.25;22.05;;;8.80;99.90;;;;;;5121589;28;20071;-68
2022/04/16 05:43:25;;;;;;;30.98;22.35;;;8.60;99.90;;;;;;5103234;28;20048;-69
2022/04/16 05:45:52;;;;;;;29.92;22.38;;;8.50;99.90;;;;;;5120330;28;20035;-69
2022/04/16 05:48:18;;;;;;;30.60;23.02;;;8.50;99.90;;;;;;5120988;28;20036;-68
2022/04/16 05:50:44;;;;;;;32.88;23.38;;;8.50;99.90;;;;;;5120993;28;20103;-68
2022/04/16 05:53:11;;;;;;;30.08;21.88;;;8.60;99.90;;;;;;5086446;28;20036;-68
2022/04/16 05:55:46;;;;;;;30.73;22.67;;;8.60;99.90;;;;;;5120170;28;20312;-68
2022/04/16 05:58:12;;;;;;;30.63;22.35;;;8.70;99.90;;;;;;5120772;28;20394;-69
2022/04/16 06:00:39;;;;;;;29.75;22.85;;;8.80;99.90;;;;;;5120001;28;20399;-68
2022/04/16 06:03:05;;;;;;;28.83;23.05;;;8.80;99.90;;;;;;5103261;28;20284;-68
2022/04/16 06:05:31;;;;;;;32.35;23.85;;;8.90;99.90;;;;;;5119865;28;20103;-68
2022/04/16 06:08:00;;;;;;;30.35;22.35;;;8.90;99.90;;;;;;5119967;28;20107;-68
2022/04/16 06:10:27;;;;;;;30.42;22.42;;;9.00;99.90;;;;;;5120590;28;20043;-68
2022/04/16 06:12:53;;;;;;;28.45;22.33;;;9.00;99.90;;;;;;5120527;28;20031;-67
2022/04/16 06:15:19;;;;;;;31.38;21.80;;;9.00;99.90;;;;;;5120474;28;20341;-68
2022/04/16 06:17:45;;;;;;;30.60;23.17;;;9.10;99.90;;;;;;5120427;28;20034;-67
2022/04/16 06:20:11;;;;;;;30.20;23.27;;;9.10;99.90;;;;;;5119605;28;20130;-68
2022/04/16 06:22:38;;;;;;;32.95;24.33;;;9.00;99.90;;;;;;5120343;28;20027;-66
2022/04/16 06:25:05;;;;;;;30.98;22.58;;;9.10;99.90;;;;;;5119513;28;20042;-67
2022/04/16 06:27:30;;;;;;;31.80;22.92;;;9.20;99.90;;;;;;5120288;28;20110;-68
2022/04/16 06:29:56;;;;;;;32.25;23.70;;;9.20;99.90;;;;;;5120095;28;20157;-69
2022/04/16 06:32:22;;;;;;;31.73;22.92;;;9.20;99.90;;;;;;5120085;28;20051;-68
2022/04/16 06:34:47;;;;;;;32.10;23.27;;;9.20;99.90;;;;;;5101533;28;20023;-68
2022/04/16 06:37:13;;;;;;;34.22;23.35;;;9.20;99.90;;;;;;5120049;28;20030;-67
2022/04/16 06:39:41;;;;;;;30.75;22.98;;;9.20;99.90;;;;;;5120372;28;20028;-68
2022/04/16 06:42:07;;;;;;;32.47;23.83;;;9.30;99.90;;;;;;5119176;28;20407;-67
2022/04/16 06:44:33;;;;;;;30.65;23.58;;;9.40;99.90;;;;;;5119773;28;20415;-67
2022/04/16 06:46:59;;;;;;;30.63;23.13;;;9.50;99.90;;;;;;5119163;28;20062;-67
2022/04/16 06:49:27;;;;;;;29.17;23.52;;;9.50;99.90;;;;;;5119723;28;20441;-67
2022/04/16 06:51:53;;;;;;;30.65;22.67;;;9.70;99.90;;;;;;5119763;28;20085;-67
2022/04/16 06:54:19;;;;;;;30.80;22.90;;;9.80;99.90;;;;;;5119559;28;20387;-66
2022/04/16 06:56:45;;;;;;;30.15;22.20;;;9.80;99.90;;;;;;5119318;28;20429;-67
2022/04/16 06:59:11;;;;;;;28.20;21.98;;;9.70;99.90;;;;;;5119701;28;20035;-68
2022/04/16 07:01:36;;;;;;;30.77;22.50;;;9.90;99.90;;;;;;5119537;28;20415;-67
2022/04/16 07:04:02;;;;;;;27.92;22.80;;;10.00;99.90;;;;;;5120184;28;20031;-67
2022/04/16 07:06:28;;;;;;;27.38;21.67;;;10.10;99.90;;;;;;5118827;28;20031;-66
2022/04/16 07:08:54;;;;;;;28.08;21.27;;;10.20;99.90;;;;;;5119397;28;20035;-65
2022/04/16 07:11:22;;;;;;;30.95;21.65;;;10.40;99.90;;;;;;5118729;28;20063;-66
2022/04/16 07:13:48;;;;;;;28.08;20.95;;;10.30;99.90;;;;;;5118604;28;20428;-66
2022/04/16 07:16:14;;;;;;;27.75;22.33;;;10.40;99.90;;;;;;5119379;28;20020;-66
2022/04/16 07:18:40;;;;;;;30.17;21.20;;;10.40;99.90;;;;;;5118642;28;20051;-67
2022/04/16 07:21:05;;;;;;;25.67;20.02;;;10.60;99.90;;;;;;5119179;28;20500;-70
2022/04/16 07:23:31;;;;;;;27.42;20.83;;;10.70;99.90;;;;;;5102098;28;20380;-68
2022/04/16 07:25:57;;;;;;;29.80;20.67;;;10.60;99.90;;;;;;5119012;28;20039;-68
2022/04/16 07:28:23;;;;;;;27.00;20.42;;;10.80;99.90;;;;;;5118415;28;20124;-68
2022/04/16 07:30:49;;;;;;;25.92;20.42;;;10.80;99.90;;;;;;5084451;28;20421;-66
2022/04/16 07:33:16;;;;;;;27.05;20.48;;;10.80;99.90;;;;;;5118321;28;20023;-66
2022/04/16 07:35:42;;;;;;;27.00;19.38;;;10.90;99.90;;;;;;5118912;28;20020;-64
2022/04/16 07:38:08;;;;;;;27.73;20.65;;;11.00;99.90;;;;;;5118851;28;20034;-66
2022/04/16 07:40:34;;;;;;;29.70;21.00;;;10.90;99.90;;;;;;5118207;28;20119;-66
2022/04/16 07:43:03;;;;;;;25.45;19.77;;;11.10;99.90;;;;;;5117902;28;20415;-64
2022/04/16 07:45:29;;;;;;;26.77;19.38;;;11.20;99.90;;;;;;5117845;28;20032;-65
2022/04/16 07:47:55;;;;;;;24.08;19.38;;;11.30;99.90;;;;;;5118725;28;20042;-66
2022/04/16 07:50:21;;;;;;;24.73;19.55;;;11.50;99.90;;;;;;5118735;28;20027;-67
2022/04/16 07:52:48;;;;;;;22.33;19.27;;;11.50;99.90;;;;;;5117852;28;20084;-66
2022/04/16 07:55:15;;;;;;;24.33;19.02;;;11.50;99.90;;;;;;5118585;28;20024;-66
2022/04/16 07:57:41;;;;;;;21.75;19.02;;;11.50;99.90;;;;;;5117695;28;20426;-66
2022/04/16 08:00:08;;;;;;;22.77;18.33;;;11.70;99.90;;;;;;5118474;28;20019;-65
2022/04/16 08:02:40;;;;;;;23.52;18.30;;;11.80;99.90;;;;;;5118515;28;20110;-67
2022/04/16 08:05:07;;;;;;;23.75;19.27;;;11.80;99.90;;;;;;5117575;28;20062;-65
2022/04/16 08:07:33;;;;;;;23.13;18.45;;;11.80;99.90;;;;;;5118331;28;20038;-67
2022/04/16 08:09:59;;;;;;;23.58;17.55;;;11.80;99.90;;;;;;5100906;28;20036;-68
2022/04/16 08:12:27;;;;;;;22.02;17.45;;;11.90;99.90;;;;;;5117499;28;20088;-67
2022/04/16 08:14:53;;;;;;;25.05;17.98;;;12.00;99.90;;;;;;5118533;28;20043;-69
2022/04/16 08:17:19;;;;;;;26.80;20.83;;;12.20;99.90;;;;;;5117405;28;20288;-69
2022/04/16 08:19:45;;;;;;;23.90;18.05;;;12.40;99.90;;;;;;5117340;28;20304;-68
2022/04/16 08:22:17;;;;;;;23.02;17.42;;;12.40;99.90;;;;;;5118030;28;20027;-68
2022/04/16 08:24:54;;;;;;;19.88;16.60;;;12.50;99.90;;;;;;5118185;28;20039;-68
2022/04/16 08:27:20;;;;;;;18.63;16.02;;;12.30;99.90;;;;;;5100262;28;20133;-68
2022/04/16 08:29:46;;;;;;;19.02;15.65;;;12.40;99.90;;;;;;5117155;28;20046;-67
2022/04/16 08:32:12;;;;;;;20.17;15.63;;;12.50;99.90;;;;;;5117449;28;20050;-68
2022/04/16 08:34:38;;;;;;;21.83;16.90;;;12.60;99.90;;;;;;5100381;28;20036;-67
2022/04/16 08:37:04;;;;;;;21.88;16.25;;;12.70;99.90;;;;;;5117850;28;20034;-68
2022/04/16 08:39:30;;;;;;;18.98;14.57;;;12.90;99.90;;;;;;5100129;28;20031;-66
2022/04/16 08:41:57;;;;;;;18.48;15.32;;;12.90;99.90;;;;;;5117738;28;20036;-68
2022/04/16 08:44:25;;;;;;;16.05;12.93;;;12.90;99.90;;;;;;5116952;28;20051;-67
2022/04/16 08:46:53;;;;;;;13.35;11.13;;;13.10;99.90;;;;;;5117696;28;20101;-68
2022/04/16 08:49:19;;;;;;;16.55;12.68;;;13.10;99.90;;;;;;5083189;28;20036;-66
2022/04/16 08:51:47;;;;;;;15.18;12.18;;;13.20;99.90;;;;;;5116856;28;20024;-66
2022/04/16 08:54:13;;;;;;;13.65;11.73;;;13.30;99.90;;;;;;5117564;28;20077;-67
2022/04/16 08:56:39;;;;;;;13.93;11.60;;;13.30;99.90;;;;;;5099846;28;20023;-66
2022/04/16 08:59:05;;;;;;;14.00;11.50;;;13.40;99.90;;;;;;5117444;28;20038;-66
2022/04/16 09:01:32;;;;;;;14.35;12.15;;;13.50;99.90;;;;;;5116646;28;20050;-64
2022/04/16 09:03:59;;;;;;;14.73;11.18;;;13.60;99.90;;;;;;5116626;28;20134;-64
2022/04/16 09:06:25;;;;;;;15.38;11.38;;;13.50;99.90;;;;;;5083078;28;20105;-65
2022/04/16 09:08:51;;;;;;;13.40;10.07;;;13.60;99.90;;;;;;5117958;28;20096;-65
2022/04/16 09:11:21;;;;;;;10.18;8.80;;;13.80;99.90;;;;;;5117354;28;20062;-66
2022/04/16 09:13:51;;;;;;;10.38;8.90;;;14.00;99.90;;;;;;5117409;28;20074;-65
2022/04/16 09:16:17;;;;;;;12.35;10.23;;;14.00;99.90;;;;;;5116586;28;20034;-65
2022/04/16 09:18:55;;;;;;;10.50;9.35;;;14.20;99.90;;;;;;5116695;28;20352;-64
2022/04/16 09:21:28;;;;;;;14.30;9.68;;;14.20;99.90;;;;;;5117280;28;20095;-65
2022/04/16 09:24:03;;;;;;;11.05;9.50;;;14.30;99.90;;;;;;5117328;28;20398;-64
2022/04/16 09:26:36;;;;;;;11.13;8.82;;;14.40;99.90;;;;;;5117336;28;20391;-65
2022/04/16 09:29:08;;;;;;;10.07;8.10;;;14.50;99.90;;;;;;5117266;28;20356;-65
2022/04/16 09:31:39;;;;;;;8.23;6.80;;;14.60;99.90;;;;;;5099510;28;20131;-65
2022/04/16 09:34:16;;;;;;;7.45;5.93;;;14.70;99.90;;;;;;5116538;28;20398;-64
2022/04/16 09:36:45;;;;;;;8.35;6.15;;;14.70;99.90;;;;;;5117144;28;20047;-65
2022/04/16 09:39:11;;;;;;;6.53;5.93;;;14.70;99.90;;;;;;5117105;28;20034;-65
2022/04/16 09:41:39;;;;;;;5.20;4.70;;;14.80;99.90;;;;;;5099360;28;20031;-64
2022/04/16 09:44:23;;;;;;;9.30;6.10;;;15.10;99.90;;;;;;5116135;28;20040;-62
2022/04/16 09:46:50;;;;;;;5.57;4.72;;;15.20;99.90;;;;;;5116414;28;20035;-64
2022/04/16 09:49:17;;;;;;;6.03;4.72;;;15.30;99.90;;;;;;5117289;28;20074;-62
2022/04/16 09:51:44;;;;;;;7.50;4.57;;;15.40;99.90;;;;;;5116782;28;20290;-65
2022/04/16 09:54:11;;;;;;;5.57;4.95;;;15.40;99.90;;;;;;5116315;28;20067;-63
2022/04/16 09:56:40;;;;;;;6.10;5.50;;;15.40;99.90;;;;;;5116244;28;20031;-66
2022/04/16 09:59:08;;;;;;;6.85;5.32;;;15.40;99.90;;;;;;5117101;28;20106;-65
2022/04/16 10:01:38;;;;;;;6.30;5.18;;;15.40;99.90;;;;;;5116305;28;20036;-65
2022/04/16 10:04:06;;;;;;;5.30;4.80;;;15.50;99.90;;;;;;5116062;28;20040;-65
2022/04/16 10:06:33;;;;;;;5.57;4.30;;;15.90;99.90;;;;;;5116850;28;20024;-64
2022/04/16 10:09:13;;;;;;;5.55;4.82;;;15.90;99.90;;;;;;5116866;28;20043;-64
2022/04/16 10:15:05;;;;;;;5.15;4.65;;;15.80;99.90;;;;;;5120552;28;20408;-65
2022/04/16 10:17:47;;;;;;;5.25;4.75;;;15.80;99.90;;;;;;5109747;28;20046;-64
2022/04/16 10:20:18;;;;;;;4.53;3.80;;;16.00;99.90;;;;;;5119696;28;20055;-65
2022/04/16 10:23:03;;;;;;;4.35;3.80;;;16.10;99.90;;;;;;5119655;28;20058;-63
2022/04/16 10:25:34;;;;;;;5.50;5.00;;;16.30;99.90;;;;;;5119677;28;20280;-63
2022/04/16 10:28:03;;;;;;;5.03;4.53;;;16.40;99.90;;;;;;5119613;28;20027;-62
2022/04/16 10:30:55;;;;;;;5.55;4.63;;;16.20;99.90;;;;;;5120206;28;20075;-63
2022/04/16 10:33:27;;;;;;;6.15;5.55;;;16.30;99.90;;;;;;5115377;28;20040;-63
2022/04/16 10:36:09;;;;;;;7.45;6.32;;;16.30;99.90;;;;;;5120087;28;20031;-60
2022/04/16 10:38:40;;;;;;;7.13;6.43;;;16.50;99.90;;;;;;5120399;28;20113;-63
2022/04/16 10:41:11;;;;;;;7.47;6.05;;;16.70;99.90;;;;;;5120093;28;20099;-62
2022/04/16 10:43:37;;;;;;;6.75;6.15;;;16.80;99.90;;;;;;5119802;28;20071;-61
2022/04/16 10:46:04;;;;;;;8.75;6.43;;;17.20;99.90;;;;;;5119911;28;20066;-61
2022/04/16 10:48:41;;;;;;;6.40;5.65;;;17.90;99.90;;;;;;5119802;28;20130;-61
2022/04/16 10:51:08;;;;;;;6.18;5.60;;;18.80;99.90;;;;;;5119881;28;20016;-62
2022/04/16 10:53:36;;;;;;;7.85;5.85;;;19.40;99.90;;;;;;5119774;28;20024;-61
2022/04/16 10:56:22;;;;;;;6.43;5.60;;;19.30;99.90;;;;;;5119740;28;20332;-62
2022/04/16 10:59:08;;;;;;;6.10;5.60;;;19.90;99.90;;;;;;5119045;28;20062;-63
2022/04/16 11:01:35;;;;;;;5.43;4.90;;;20.90;99.90;;;;;;5119700;28;20104;-61
2022/04/16 11:04:14;;;;;;;6.47;5.38;;;20.60;99.90;;;;;;5119970;28;20088;-61
2022/04/16 11:06:51;;;;;;;6.20;5.60;;;20.50;99.90;;;;;;5119515;28;20032;-63
2022/04/16 11:09:20;;;;;;;5.93;5.32;;;20.80;99.90;;;;;;5119982;28;20038;-64
2022/04/16 11:11:53;;;;;;;7.28;5.35;;;21.10;99.90;;;;;;5119394;28;20023;-62
2022/04/16 11:14:19;;;;;;;6.63;5.88;;;21.50;99.90;;;;;;5119980;28;20031;-63
2022/04/16 11:16:47;;;;;;;5.90;5.45;;;22.10;99.90;;;;;;5101583;28;20277;-62
2022/04/16 11:19:15;;;;;;;6.28;5.70;;;22.60;99.90;;;;;;5118605;28;20027;-62
2022/04/16 11:21:42;;;;;;;7.10;6.40;;;22.70;99.70;;;;;;5118716;28;20036;-62
2022/04/16 11:24:08;;;;;;;7.20;6.50;;;22.80;99.10;;;;;;5118939;28;20089;-62
2022/04/16 11:35:11;;;;;;;6.80;6.20;;;23.10;96.90;;;;;;5119223;28;20104;-62
2022/04/16 11:37:38;;;;;;;6.75;6.15;;;23.40;95.90;;;;;;5118891;28;20102;-61
2022/04/16 11:40:09;;;;;;;6.88;6.28;;;23.60;95.10;;;;;;5119084;28;20407;-61
2022/04/16 11:42:35;;;;;;;7.95;7.15;;;23.30;93.90;;;;;;5117854;28;20285;-62
2022/04/16 11:45:02;;;;;;;6.68;6.05;;;23.00;94.60;;;;;;5118747;28;20458;-62
2022/04/16 11:47:30;;;;;;;6.88;6.20;;;22.80;94.50;;;;;;5118900;28;20023;-62
2022/04/16 11:50:00;;;;;;;7.00;6.40;;;23.10;93.60;;;;;;5118573;28;20435;-63
2022/04/16 11:52:31;;;;;;;6.93;6.22;;;23.90;92.20;;;;;;5118615;28;20034;-62
2022/04/16 11:55:06;;;;;;;6.82;6.25;;;24.60;91.40;;;;;;5117837;28;20281;-61
2022/04/16 11:57:36;;;;;;;8.35;6.20;;;24.60;90.50;;;;;;5117792;28;20063;-61
2022/04/16 12:00:10;;;;;;;6.00;5.47;;;25.00;89.80;;;;;;5118737;28;20299;-61
2022/04/16 12:02:38;;;;;;;5.95;5.45;;;25.80;88.00;;;;;;5117674;28;20031;-61
2022/04/16 12:05:08;;;;;;;6.03;5.47;;;25.30;88.00;;;;;;5118327;28;20046;-62
2022/04/16 12:07:34;;;;;;;7.18;5.88;;;25.50;86.90;;;;;;5117389;28;20053;-62
2022/04/16 12:10:07;;;;;;;6.95;6.38;;;26.00;83.80;;;;;;5118111;28;20028;-62
2022/04/16 12:12:52;;;;;;;7.07;6.45;;;24.80;87.40;;;;;;5117486;28;20434;-61
2022/04/16 12:15:26;;;;;;;6.78;6.18;;;25.80;85.90;;;;;;5117926;28;20044;-62
2022/04/16 12:17:54;;;;;;;6.80;6.20;;;26.40;81.60;;;;;;5118057;28;20036;-62
2022/04/16 12:20:20;;;;;;;6.38;5.88;;;26.60;80.20;;;;;;5118250;28;20267;-62
2022/04/16 12:22:56;;;;;;;7.07;6.47;;;27.50;77.30;;;;;;5118002;28;20391;-62
2022/04/16 12:25:23;;;;;;;6.05;5.65;;;28.00;74.90;;;;;;5117826;28;20374;-62
2022/04/16 12:27:53;;;;;;;5.65;5.22;;;28.10;72.40;;;;;;5117666;28;20024;-62
2022/04/16 12:30:26;;;;;;;6.50;5.45;;;28.30;70.90;;;;;;5117668;28;20028;-62
2022/04/16 12:33:00;;;;;;;6.22;5.72;;;28.50;69.60;;;;;;5116982;28;20346;-62
2022/04/16 12:35:27;;;;;;;6.80;6.13;;;28.60;67.60;;;;;;5117415;28;20036;-60
2022/04/16 12:37:54;;;;;;;7.28;6.38;;;28.30;67.60;;;;;;5117626;28;20012;-61
2022/04/16 12:40:21;;;;;;;5.90;5.40;;;27.90;67.50;;;;;;5116826;28;20118;-61
2022/04/16 12:42:48;;;;;;;5.78;5.28;;;27.80;68.40;;;;;;5116729;28;20031;-61
2022/04/16 12:45:14;;;;;;;5.70;5.20;;;29.30;65.50;;;;;;5116931;28;20100;-61
2022/04/16 12:47:40;;;;;;;5.47;4.97;;;29.80;63.80;;;;;;5117568;28;20035;-61
2022/04/16 12:50:06;;;;;;;5.20;4.70;;;29.80;62.10;;;;;;5117531;28;20038;-61
2022/04/16 12:52:32;;;;;;;4.70;4.40;;;29.80;62.50;;;;;;5117499;28;20108;-62
2022/04/16 12:54:59;;;;;;;5.80;5.35;;;29.80;61.20;;;;;;5117593;28;20069;-62
2022/04/16 12:57:25;;;;;;;5.68;5.20;;;30.20;59.30;;;;;;5117697;28;20032;-61
2022/04/16 12:59:50;;;;;;;6.05;5.05;;;29.90;58.60;;;;;;5099752;28;20104;-62
2022/04/16 13:02:16;;;;;;;5.80;5.20;;;29.10;59.20;;;;;;5116840;28;20047;-61
2022/04/16 13:04:42;;;;;;;6.25;5.65;;;29.20;59.30;;;;;;5116762;28;20405;-62
2022/04/16 13:07:08;;;;;;;5.50;4.72;;;29.20;59.10;;;;;;5116945;28;20035;-62